ADDS METAR Data INFO
IDs: Format: Raw Decoded Include TAF

Data at: 0747 UTC 20 Nov 2017

METAR for:KAOH (Lima/Allen Cnty, OH, US)
Text:KAOH 200653Z AUTO 23008KT 10SM CLR M03/M05 A3010 RMK AO2 SLP201 T10281050 $
Temperature: -2.8°C ( 27°F)
Dewpoint: -5.0°C ( 23°F) [RH = 85%]
Pressure (altimeter):30.10 inches Hg (1019.4 mb) [Sea level pressure: 1020.1 mb]
Winds:from the SW (230 degrees) at 9 MPH (8 knots; 4.1 m/s)
Visibility:10 or more sm (16+ km)
Ceiling:at least 12,000 feet AGL
Clouds:sky clear below 12,000 feet AGL
QC Flag:automated observation with no human augmentation; SOME DATA ABOVE MAY BE INACCURATE!!!"$" is an indication the sensor requires maintenance.